Aérodrome :
LOGIN :

S'inscrire | Disclaimer

   EN    FR    IT 

 










Légende :    VFR   VFR Marginal   IFR   IFR Intensif   IFR Très Intensif
Visi : 
Plafond : 
>= 8 km
>= 3000ft
5 à 8 km
1000 à 3000 ft
1500m à 5 km
500 à 1000 ft
800 à 1500m
200 à 500 ft
< 800m
< 200 ft
Symboles :   Orages  Brouillard  Fortes neiges  Fortes précipitations  Vent > 20 kt
SIGMETs :   Divers  Orages  Givrage  Turbulence  Onde Orograph.  Cendres Volcan.







- Altitude de l'aérodrome : 433 ft
- Code IATA : CCF
- Voir les cartes d'approche


LFMK - Carcassonne

DERNIER METAR :
  • 221600Z AUTO 09011KT 9999 BKN016 BKN021 OVC031 14/11 Q1013 NOSIG

METARs EXPIRÉS :
  • 221530Z AUTO 09011KT 060V140 9999 BKN017 BKN027 15/11 Q1013 NOSIG
  • 221500Z AUTO 11011KT 080V160 9999 BKN018 BKN024 BKN033 15/11 Q1013 NOSIG
  • 221430Z AUTO 10011KT 070V140 9999 FEW021 15/10 Q1013 NOSIG
  • 221400Z AUTO 11012KT 070V150 9999 FEW023 SCT031 15/10 Q1013 BECMG 09015G25KT OVC010
  • 221330Z AUTO 10014KT 080V140 9999 FEW023 15/10 Q1013 BECMG 09015G25KT OVC010

TAF TAF LFMK
Valide du 22 à 15h jusqu'au 23 à 15h UTC


221400Z 2215/2315 10014KT 9999 FEW023
BECMG 2215/2217 BKN020
TEMPO 2220/2306 1500 BR VV///
Pas de NOTAMs connus pour ce terrain.



MET'MAP, la Météo Aéronautique d'un coup d'oeil ! - Copyright ORBIFLY Décembre 2007 - Disclaimer

ORBIFLY MET'MAP TEAM :

Programmation & Développement : Alexandra Zaïnal
Conception & Développement : Baudouin d'Aumeries
Co-Programmation & Développement : Marc-Olivier Méhu
Soutien technique & logistique : Manuel Goepfert

Contact : metmap@orbifly.com




SOURCES & CREDITS :

   NOAA